Time;durP1;ratioP1;P1;durP2;ratioP2;P2;SDS_P1;SDS_P2;PMS_P1;PMS_P2;Temp;Humidity;BMP_temperature;BMP_pressure;BME280_temperature;BME280_humidity;BME280_pressure;Samples;Min_cycle;Max_cycle;Signal;HPM_P1;HPM_P2
2022/08/28 00:01:34;;;;;;;8.90;2.85;;;14.90;99.90;;;;;;5003446;28;20506;-73
2022/08/28 00:04:00;;;;;;;7.32;2.67;;;14.80;99.90;;;;;;5014203;28;20053;-73
2022/08/28 00:06:27;;;;;;;7.40;2.72;;;14.80;99.90;;;;;;5013355;28;20470;-73
2022/08/28 00:08:53;;;;;;;9.38;2.50;;;14.80;99.90;;;;;;5042670;28;20049;-73
2022/08/28 00:11:20;;;;;;;10.35;3.05;;;14.80;99.90;;;;;;5030390;28;20045;-73
2022/08/28 00:13:46;;;;;;;7.35;2.55;;;14.80;99.90;;;;;;5014513;28;20041;-73
2022/08/28 00:16:12;;;;;;;5.50;2.70;;;14.70;99.90;;;;;;5032005;28;20052;-73
2022/08/28 00:18:38;;;;;;;7.25;2.72;;;14.70;99.90;;;;;;5029989;28;20045;-73
2022/08/28 00:21:05;;;;;;;8.48;2.72;;;14.70;99.90;;;;;;5030632;28;20592;-73
2022/08/28 00:23:34;;;;;;;8.68;2.70;;;14.60;99.90;;;;;;5028894;28;20084;-73
2022/08/28 00:26:00;;;;;;;5.97;2.50;;;14.60;99.90;;;;;;5030874;28;20045;-74
2022/08/28 00:28:28;;;;;;;7.88;2.40;;;14.50;99.90;;;;;;5014507;28;20120;-74
2022/08/28 00:30:57;;;;;;;9.32;2.60;;;14.50;99.90;;;;;;5031665;28;20084;-73
2022/08/28 00:33:33;;;;;;;9.63;2.80;;;14.40;99.90;;;;;;5029165;28;20055;-74
2022/08/28 00:36:01;;;;;;;9.35;2.88;;;14.40;99.90;;;;;;5030104;28;20056;-74
2022/08/28 00:38:28;;;;;;;6.55;2.70;;;14.40;99.90;;;;;;5016043;28;20049;-74
2022/08/28 00:40:57;;;;;;;8.30;2.70;;;14.30;99.90;;;;;;5017509;28;20076;-74
2022/08/28 00:43:32;;;;;;;6.30;2.20;;;14.30;99.90;;;;;;5029108;28;20049;-74
2022/08/28 00:45:59;;;;;;;10.50;2.67;;;14.30;99.90;;;;;;5030217;28;20168;-74
2022/08/28 00:48:25;;;;;;;9.82;2.80;;;14.30;99.90;;;;;;5031831;28;20099;-74
2022/08/28 00:53:35;;;;;;;8.10;2.22;;;14.20;99.90;;;;;;5032051;28;20073;-74
2022/08/28 00:56:05;;;;;;;8.85;2.53;;;14.20;99.90;;;;;;5030471;28;20056;-74
2022/08/28 00:58:31;;;;;;;8.35;2.72;;;14.30;99.90;;;;;;5028572;28;20046;-74
2022/08/28 01:00:59;;;;;;;13.50;2.75;;;14.20;99.90;;;;;;5030323;28;20037;-74
2022/08/28 01:03:26;;;;;;;8.70;2.65;;;14.10;99.90;;;;;;5027060;28;20393;-74
2022/08/28 01:05:52;;;;;;;12.98;2.75;;;14.40;99.90;;;;;;5010981;28;20504;-73
2022/08/28 01:08:18;;;;;;;10.15;2.72;;;14.50;99.90;;;;;;4994635;28;20051;-74
2022/08/28 01:10:49;;;;;;;12.85;2.53;;;14.60;99.90;;;;;;5028644;28;20049;-73
2022/08/28 01:13:16;;;;;;;11.43;2.93;;;14.60;99.90;;;;;;5031294;28;20048;-74
2022/08/28 01:15:42;;;;;;;12.32;2.83;;;14.60;99.90;;;;;;5013384;28;20060;-73
2022/08/28 01:18:11;;;;;;;8.63;2.67;;;14.60;99.90;;;;;;5013736;28;20045;-74
2022/08/28 01:20:47;;;;;;;7.55;2.60;;;14.60;99.90;;;;;;5031723;28;20106;-74
2022/08/28 01:23:16;;;;;;;8.10;2.28;;;14.50;99.90;;;;;;5030905;28;20037;-74
2022/08/28 01:25:42;;;;;;;10.80;2.78;;;14.50;99.90;;;;;;5030672;28;20481;-75
2022/08/28 01:28:11;;;;;;;9.27;2.53;;;14.40;99.90;;;;;;5029682;28;20049;-74
2022/08/28 01:30:40;;;;;;;10.73;2.38;;;14.40;99.90;;;;;;5030992;28;20084;-73
2022/08/28 01:33:07;;;;;;;9.60;2.55;;;14.40;99.90;;;;;;5023278;28;20505;-74
2022/08/28 01:35:34;;;;;;;9.70;2.53;;;14.40;99.90;;;;;;5013178;28;20042;-74
2022/08/28 01:38:01;;;;;;;7.82;2.80;;;14.40;99.90;;;;;;5022474;28;20057;-74
2022/08/28 01:40:36;;;;;;;9.93;2.78;;;14.40;99.90;;;;;;5012649;28;20048;-74
2022/08/28 01:43:09;;;;;;;11.75;2.65;;;14.40;99.90;;;;;;5002559;28;20041;-73
2022/08/28 01:45:36;;;;;;;5.50;2.45;;;14.30;99.90;;;;;;5031188;28;20053;-74
2022/08/28 01:48:07;;;;;;;8.10;2.40;;;14.30;99.90;;;;;;5026977;28;20046;-73
2022/08/28 01:50:33;;;;;;;10.43;2.85;;;14.30;99.90;;;;;;5012058;28;20363;-74
2022/08/28 01:53:00;;;;;;;8.20;2.75;;;14.30;99.90;;;;;;5023512;28;20144;-73
2022/08/28 01:55:26;;;;;;;9.52;2.85;;;14.30;99.90;;;;;;5015046;28;20501;-73
2022/08/28 01:57:53;;;;;;;8.90;2.72;;;14.30;99.90;;;;;;5029735;28;20111;-73
2022/08/28 02:00:21;;;;;;;11.73;3.10;;;14.20;99.90;;;;;;5017943;28;20042;-73
2022/08/28 02:02:49;;;;;;;11.10;2.95;;;14.20;99.90;;;;;;5001712;28;20049;-73
2022/08/28 02:05:15;;;;;;;10.60;2.70;;;14.20;99.90;;;;;;5031111;28;20046;-74
2022/08/28 02:07:41;;;;;;;11.38;2.92;;;14.10;99.90;;;;;;5037995;28;20048;-73
2022/08/28 02:10:10;;;;;;;9.80;3.00;;;14.10;99.90;;;;;;5015158;28;20041;-73
2022/08/28 02:12:37;;;;;;;6.85;2.63;;;14.10;99.90;;;;;;5011584;28;20060;-73
2022/08/28 02:15:06;;;;;;;13.68;3.38;;;14.00;99.90;;;;;;5032822;28;20103;-73
2022/08/28 02:17:32;;;;;;;9.07;3.00;;;14.00;99.90;;;;;;5029165;28;20110;-73
2022/08/28 02:19:58;;;;;;;8.73;3.10;;;14.00;99.90;;;;;;5008596;28;20488;-73
2022/08/28 02:22:24;;;;;;;9.40;2.92;;;14.00;99.90;;;;;;5010168;28;20056;-73
2022/08/28 02:24:50;;;;;;;9.90;3.03;;;14.00;99.90;;;;;;5040353;28;20064;-73
2022/08/28 02:27:16;;;;;;;11.43;3.08;;;14.00;99.90;;;;;;4996727;28;20072;-74
2022/08/28 02:29:42;;;;;;;7.00;2.83;;;14.10;99.90;;;;;;5007688;28;20061;-74
2022/08/28 02:32:09;;;;;;;10.77;3.00;;;14.00;99.90;;;;;;5040638;28;20045;-74
2022/08/28 02:34:36;;;;;;;11.07;3.20;;;14.00;99.90;;;;;;5025731;28;20433;-74
2022/08/28 02:37:02;;;;;;;8.80;3.22;;;14.00;99.90;;;;;;5029431;28;20037;-73
2022/08/28 02:39:28;;;;;;;10.57;3.35;;;14.00;99.90;;;;;;5033067;28;20048;-73
2022/08/28 02:41:54;;;;;;;9.65;3.33;;;13.90;99.90;;;;;;5030907;28;20041;-74
2022/08/28 02:44:20;;;;;;;6.82;3.25;;;14.00;99.90;;;;;;5033152;28;20099;-74
2022/08/28 02:46:46;;;;;;;10.65;4.28;;;13.90;99.90;;;;;;5009355;28;20481;-74
2022/08/28 02:49:12;;;;;;;10.77;3.78;;;14.00;99.90;;;;;;5026968;28;20045;-74
2022/08/28 02:51:38;;;;;;;9.65;3.00;;;13.80;99.90;;;;;;5032907;28;20395;-74
2022/08/28 02:54:04;;;;;;;11.02;3.22;;;13.90;99.90;;;;;;5032028;28;20045;-73
2022/08/28 02:56:30;;;;;;;9.13;2.95;;;13.80;99.90;;;;;;4991391;28;20184;-74
2022/08/28 02:58:56;;;;;;;10.65;3.05;;;13.90;99.90;;;;;;5023481;28;20079;-74
2022/08/28 03:01:23;;;;;;;12.95;3.30;;;13.80;99.90;;;;;;5008818;28;20060;-73
2022/08/28 03:03:49;;;;;;;11.50;2.97;;;13.70;99.90;;;;;;5028430;28;20429;-74
2022/08/28 03:06:15;;;;;;;8.23;2.97;;;13.70;99.90;;;;;;5022879;28;20080;-73
2022/08/28 03:08:41;;;;;;;10.05;2.90;;;13.70;99.90;;;;;;5024614;28;20797;-73
2022/08/28 03:11:08;;;;;;;9.90;2.97;;;13.70;99.90;;;;;;5040569;28;20102;-74
2022/08/28 03:13:34;;;;;;;8.98;2.88;;;13.70;99.90;;;;;;5026319;28;20053;-74
2022/08/28 03:16:00;;;;;;;11.75;3.03;;;13.60;99.90;;;;;;5027923;28;20124;-73
2022/08/28 03:18:29;;;;;;;7.15;2.45;;;13.60;99.90;;;;;;5024646;28;20045;-74
2022/08/28 03:20:55;;;;;;;8.20;2.95;;;13.60;99.90;;;;;;5026032;28;20504;-73
2022/08/28 03:23:27;;;;;;;11.75;3.33;;;13.60;99.90;;;;;;5009433;28;20049;-74
2022/08/28 03:25:53;;;;;;;9.15;2.90;;;13.60;99.90;;;;;;5029869;28;20472;-73
2022/08/28 03:28:19;;;;;;;8.40;3.13;;;13.50;99.90;;;;;;5033123;28;20073;-73
2022/08/28 03:30:45;;;;;;;8.35;2.70;;;13.60;99.90;;;;;;5048089;28;20037;-73
2022/08/28 03:33:11;;;;;;;9.95;3.08;;;13.50;99.90;;;;;;5032908;28;20409;-73
2022/08/28 03:35:36;;;;;;;7.55;2.92;;;13.60;99.90;;;;;;5033646;28;20484;-73
2022/08/28 03:38:03;;;;;;;8.05;3.10;;;13.50;99.90;;;;;;5032755;28;20041;-73
2022/08/28 03:40:31;;;;;;;6.70;2.72;;;13.50;99.90;;;;;;5032313;28;20045;-74
2022/08/28 03:42:57;;;;;;;7.93;2.70;;;13.50;99.90;;;;;;5033772;28;20116;-73
2022/08/28 03:45:23;;;;;;;7.78;3.58;;;13.50;99.90;;;;;;4999608;28;20041;-74
2022/08/28 03:47:49;;;;;;;10.70;2.88;;;13.40;99.90;;;;;;5012812;28;20505;-74
2022/08/28 03:50:16;;;;;;;7.13;2.80;;;13.40;99.90;;;;;;5032128;28;20605;-74
2022/08/28 03:52:42;;;;;;;8.50;3.00;;;13.30;99.90;;;;;;5033348;28;20084;-74
2022/08/28 03:55:10;;;;;;;6.85;2.72;;;13.30;99.90;;;;;;5016834;28;20080;-74
2022/08/28 03:57:37;;;;;;;10.88;2.80;;;13.30;99.90;;;;;;5029811;28;20489;-74
2022/08/28 04:00:08;;;;;;;9.18;2.83;;;13.30;99.90;;;;;;5026165;28;20041;-74
2022/08/28 04:02:34;;;;;;;11.30;3.53;;;13.20;99.90;;;;;;5026934;28;20601;-74
2022/08/28 04:05:00;;;;;;;10.05;3.25;;;13.20;99.90;;;;;;5012114;28;20073;-75
2022/08/28 04:07:26;;;;;;;12.25;2.55;;;13.20;99.90;;;;;;5005477;28;20194;-76
2022/08/28 04:09:54;;;;;;;9.05;2.90;;;13.20;99.90;;;;;;5028281;28;20049;-76
2022/08/28 04:12:20;;;;;;;9.70;2.97;;;13.20;99.90;;;;;;5009682;28;20124;-76
2022/08/28 04:14:46;;;;;;;11.60;3.00;;;13.20;99.90;;;;;;4994860;28;20136;-76
2022/08/28 04:17:13;;;;;;;6.00;2.40;;;13.20;99.90;;;;;;5025659;28;20041;-76
2022/08/28 04:19:39;;;;;;;8.95;2.50;;;13.20;99.90;;;;;;5028405;28;20049;-76
2022/08/28 04:22:07;;;;;;;8.00;2.80;;;13.20;99.90;;;;;;4980865;28;20055;-76
2022/08/28 04:24:32;;;;;;;6.53;2.67;;;13.30;99.90;;;;;;5031878;28;20045;-76
2022/08/28 04:26:58;;;;;;;12.02;3.10;;;13.30;99.90;;;;;;5012334;28;20397;-73
2022/08/28 04:29:25;;;;;;;9.10;2.50;;;13.30;99.90;;;;;;5009267;28;20060;-76
2022/08/28 04:31:51;;;;;;;7.82;2.58;;;13.40;99.90;;;;;;5021278;28;20033;-76
2022/08/28 04:34:16;;;;;;;7.65;2.75;;;13.30;99.90;;;;;;4990830;28;20057;-77
2022/08/28 04:36:42;;;;;;;6.55;3.05;;;13.30;99.90;;;;;;5025381;28;20045;-76
2022/08/28 04:39:09;;;;;;;6.28;2.50;;;13.20;99.90;;;;;;5009826;28;20042;-76
2022/08/28 04:41:37;;;;;;;7.40;2.53;;;13.10;99.90;;;;;;5009252;28;20045;-76
2022/08/28 04:44:03;;;;;;;7.60;2.45;;;13.10;99.90;;;;;;5030499;28;20041;-76
2022/08/28 04:46:29;;;;;;;7.53;2.53;;;13.10;99.90;;;;;;4996170;28;20048;-76
2022/08/28 04:48:56;;;;;;;8.40;2.20;;;13.00;99.90;;;;;;5008232;28;20144;-76
2022/08/28 04:51:22;;;;;;;7.93;2.60;;;13.10;99.90;;;;;;5005705;28;20489;-77
2022/08/28 04:53:48;;;;;;;4.90;2.20;;;13.10;99.90;;;;;;5021684;28;20033;-76
2022/08/28 04:56:14;;;;;;;7.03;2.22;;;13.10;99.90;;;;;;5023612;28;20037;-76
2022/08/28 04:58:42;;;;;;;13.80;2.83;;;13.10;99.90;;;;;;5039772;28;20382;-76
2022/08/28 05:01:14;;;;;;;7.95;2.50;;;13.20;99.90;;;;;;5008975;28;20048;-76
2022/08/28 05:03:41;;;;;;;7.60;2.20;;;13.20;99.90;;;;;;5028087;28;20049;-76
2022/08/28 05:06:08;;;;;;;7.55;2.85;;;13.20;99.90;;;;;;4996452;28;20049;-76
2022/08/28 05:08:34;;;;;;;7.13;2.65;;;13.20;99.90;;;;;;5031886;28;20500;-76
2022/08/28 05:11:18;;;;;;;9.93;2.45;;;13.10;99.90;;;;;;5029028;28;20045;-76
2022/08/28 05:13:44;;;;;;;9.35;2.67;;;13.10;99.90;;;;;;5011373;28;20042;-76
2022/08/28 05:16:11;;;;;;;6.00;2.15;;;13.10;99.90;;;;;;5016012;28;20084;-76
2022/08/28 05:18:36;;;;;;;5.95;2.53;;;13.20;99.90;;;;;;5031783;28;20060;-76
2022/08/28 05:21:03;;;;;;;7.50;2.40;;;13.10;99.90;;;;;;5027618;28;20037;-76
2022/08/28 05:23:29;;;;;;;9.95;2.38;;;13.30;99.90;;;;;;5029157;28;20091;-76
2022/08/28 05:25:56;;;;;;;7.68;2.30;;;13.40;99.90;;;;;;5030563;28;20183;-75
2022/08/28 05:28:25;;;;;;;10.25;2.92;;;13.40;99.90;;;;;;5031776;28;20089;-76
2022/08/28 05:30:52;;;;;;;9.30;2.50;;;13.50;99.90;;;;;;5013556;28;20433;-76
2022/08/28 05:33:18;;;;;;;7.50;2.33;;;13.60;99.90;;;;;;5013792;28;20104;-73
2022/08/28 05:35:46;;;;;;;9.35;2.40;;;13.70;99.90;;;;;;5031912;28;20050;-73
2022/08/28 05:38:14;;;;;;;8.27;2.60;;;13.80;99.90;;;;;;5031576;28;20065;-73
2022/08/28 05:40:42;;;;;;;7.55;2.13;;;13.90;99.90;;;;;;5031470;28;20390;-73
2022/08/28 05:43:09;;;;;;;7.22;2.40;;;14.00;99.90;;;;;;5031570;28;20064;-73
2022/08/28 05:45:38;;;;;;;9.18;2.20;;;14.00;99.90;;;;;;4997349;28;20038;-73
2022/08/28 05:48:04;;;;;;;8.65;2.25;;;14.10;99.90;;;;;;5048412;28;20048;-73
2022/08/28 05:50:30;;;;;;;6.90;2.30;;;14.30;99.90;;;;;;5031791;28;20128;-73
2022/08/28 05:52:56;;;;;;;10.13;2.42;;;14.30;99.90;;;;;;5030933;28;20581;-73
2022/08/28 05:55:22;;;;;;;7.50;2.00;;;14.40;99.90;;;;;;5013819;28;20045;-74
2022/08/28 05:57:48;;;;;;;5.70;2.20;;;14.50;99.90;;;;;;5031051;28;20042;-73
2022/08/28 06:00:14;;;;;;;5.90;2.03;;;14.60;99.90;;;;;;4988953;28;20041;-73
2022/08/28 06:02:41;;;;;;;7.28;2.25;;;14.80;99.90;;;;;;5014552;28;20049;-73
2022/08/28 06:05:08;;;;;;;5.93;1.95;;;14.90;99.90;;;;;;5028608;28;20151;-73
2022/08/28 06:07:34;;;;;;;14.60;2.42;;;15.00;99.90;;;;;;5012508;28;20462;-73
2022/08/28 06:10:00;;;;;;;8.23;2.58;;;15.10;99.90;;;;;;5013861;28;20037;-73
2022/08/28 06:12:26;;;;;;;8.32;2.50;;;15.20;99.90;;;;;;5030265;28;20064;-72
2022/08/28 06:14:52;;;;;;;6.50;2.35;;;15.30;99.90;;;;;;5010417;28;20068;-73
2022/08/28 06:17:18;;;;;;;5.05;2.03;;;15.40;99.90;;;;;;4995350;28;20046;-73
2022/08/28 06:19:44;;;;;;;7.75;2.20;;;15.40;99.90;;;;;;4984615;28;20397;-73
2022/08/28 06:22:11;;;;;;;10.25;2.40;;;15.50;99.90;;;;;;5002034;28;20068;-74
2022/08/28 06:24:37;;;;;;;6.13;2.20;;;15.50;99.90;;;;;;5030622;28;20091;-75
2022/08/28 06:27:03;;;;;;;13.15;2.30;;;15.50;99.90;;;;;;5030895;28;20050;-75
2022/08/28 06:29:29;;;;;;;8.93;2.33;;;15.60;99.90;;;;;;5031440;28;20104;-75
2022/08/28 06:31:58;;;;;;;5.68;1.85;;;15.60;99.90;;;;;;5030341;28;20498;-75
2022/08/28 06:34:24;;;;;;;7.80;2.05;;;15.60;99.90;;;;;;5029057;28;20053;-75
2022/08/28 06:36:50;;;;;;;6.57;1.67;;;15.60;99.90;;;;;;5011821;28;20056;-76
2022/08/28 06:39:16;;;;;;;9.57;2.22;;;15.60;99.90;;;;;;5014701;28;20041;-76
2022/08/28 06:41:42;;;;;;;6.28;1.90;;;15.70;99.90;;;;;;5029007;28;20049;-76
2022/08/28 06:44:18;;;;;;;8.65;2.08;;;15.90;99.90;;;;;;5028534;28;20548;-75
2022/08/28 06:46:44;;;;;;;7.65;2.00;;;16.10;99.90;;;;;;5032090;28;20116;-76
2022/08/28 06:49:11;;;;;;;11.68;1.92;;;16.30;99.90;;;;;;5017846;28;20428;-76
2022/08/28 06:51:37;;;;;;;6.30;1.70;;;16.50;99.90;;;;;;5032740;28;20056;-76
2022/08/28 06:54:04;;;;;;;7.00;1.58;;;16.70;99.90;;;;;;5033083;28;20048;-75
2022/08/28 06:56:30;;;;;;;7.88;1.80;;;16.90;99.90;;;;;;4984206;28;20038;-76
2022/08/28 06:58:57;;;;;;;6.70;1.95;;;17.10;99.90;;;;;;5033729;28;20402;-76
2022/08/28 07:01:29;;;;;;;5.85;1.85;;;17.30;99.90;;;;;;5015702;28;20102;-76
2022/08/28 07:03:58;;;;;;;6.35;1.48;;;17.40;99.90;;;;;;5018625;28;20401;-76
2022/08/28 07:06:24;;;;;;;10.63;1.70;;;17.60;99.90;;;;;;5031965;28;20530;-75
2022/08/28 07:08:50;;;;;;;5.90;1.73;;;17.80;99.90;;;;;;5034365;28;20076;-76
2022/08/28 07:11:17;;;;;;;7.53;1.70;;;17.90;99.90;;;;;;5031768;28;20044;-75
2022/08/28 07:13:55;;;;;;;6.47;2.13;;;18.00;99.90;;;;;;5014487;28;20046;-75
2022/08/28 07:16:24;;;;;;;10.80;2.05;;;18.20;99.90;;;;;;5027784;28;20494;-76
2022/08/28 07:18:50;;;;;;;6.63;1.42;;;18.30;99.90;;;;;;5015523;28;20496;-76
2022/08/28 07:21:16;;;;;;;5.95;1.92;;;18.50;99.90;;;;;;5013688;28;20049;-75
2022/08/28 07:23:43;;;;;;;8.73;2.05;;;18.60;99.90;;;;;;5034137;28;20045;-75
2022/08/28 07:26:18;;;;;;;7.05;1.42;;;18.70;99.90;;;;;;5032185;28;20048;-76
2022/08/28 07:28:44;;;;;;;6.32;1.63;;;18.80;99.90;;;;;;5015947;28;20052;-75
2022/08/28 07:31:14;;;;;;;7.40;1.50;;;18.90;99.90;;;;;;5015613;28;20038;-76
2022/08/28 07:33:41;;;;;;;5.10;1.70;;;19.00;99.90;;;;;;5033478;28;20045;-76
2022/08/28 07:36:09;;;;;;;6.80;1.80;;;19.10;99.90;;;;;;5032873;28;20045;-73
2022/08/28 07:38:35;;;;;;;5.72;1.60;;;19.30;99.90;;;;;;5016099;28;20041;-74
2022/08/28 07:41:02;;;;;;;5.80;1.50;;;19.50;99.90;;;;;;5016943;28;20048;-73
2022/08/28 07:46:12;;;;;;;7.22;1.90;;;20.10;99.90;;;;;;5032690;28;20684;-73
2022/08/28 07:48:40;;;;;;;6.93;1.60;;;20.00;99.90;;;;;;5011718;28;20133;-74
2022/08/28 07:51:08;;;;;;;6.72;1.80;;;20.10;99.90;;;;;;5000769;28;20048;-73
2022/08/28 07:53:35;;;;;;;6.45;1.70;;;19.90;99.90;;;;;;5017075;28;20051;-74
2022/08/28 07:56:01;;;;;;;4.55;1.50;;;19.80;99.90;;;;;;5000944;28;20084;-73
2022/08/28 07:58:27;;;;;;;2.92;1.30;;;19.60;99.90;;;;;;5033543;28;20049;-73
2022/08/28 08:00:54;;;;;;;5.28;1.42;;;19.30;99.90;;;;;;5032617;28;20045;-73
2022/08/28 08:03:21;;;;;;;7.20;1.75;;;19.20;99.90;;;;;;5016220;28;20469;-73
2022/08/28 08:05:53;;;;;;;4.88;1.50;;;19.40;99.90;;;;;;5015108;28;20053;-73
2022/08/28 08:08:19;;;;;;;6.10;1.58;;;19.70;99.90;;;;;;5033251;28;20053;-73
2022/08/28 08:10:45;;;;;;;8.70;1.70;;;20.10;99.90;;;;;;5012235;28;20069;-74
2022/08/28 08:13:10;;;;;;;7.30;1.70;;;20.20;99.90;;;;;;5010390;28;20049;-73
2022/08/28 08:15:36;;;;;;;6.80;1.67;;;20.50;99.90;;;;;;5031207;28;20075;-73
2022/08/28 08:18:02;;;;;;;6.30;1.50;;;20.40;99.90;;;;;;5016184;28;20499;-73
2022/08/28 08:20:28;;;;;;;7.22;1.83;;;20.00;99.90;;;;;;5031070;28;20485;-74
2022/08/28 08:22:54;;;;;;;7.53;2.08;;;19.70;99.90;;;;;;5032011;28;20486;-73
2022/08/28 08:25:20;;;;;;;6.75;1.70;;;19.40;99.90;;;;;;5031817;28;20363;-73
2022/08/28 08:27:46;;;;;;;5.47;2.00;;;19.40;99.90;;;;;;5031748;28;20041;-73
2022/08/28 08:30:12;;;;;;;6.25;1.70;;;19.70;99.90;;;;;;5016604;28;20481;-73
2022/08/28 08:32:38;;;;;;;4.13;1.67;;;19.90;99.90;;;;;;5032721;28;20076;-73
2022/08/28 08:35:04;;;;;;;6.03;1.60;;;20.20;99.90;;;;;;5015149;28;20373;-73
2022/08/28 08:37:30;;;;;;;4.72;1.80;;;20.40;99.90;;;;;;5011799;28;20076;-73
2022/08/28 08:39:56;;;;;;;5.43;1.73;;;20.40;99.90;;;;;;5032521;28;20486;-73
2022/08/28 08:42:29;;;;;;;5.75;1.90;;;20.20;99.90;;;;;;5015081;28;20068;-73
2022/08/28 08:44:57;;;;;;;6.30;1.80;;;19.90;99.90;;;;;;4996408;28;20100;-73
2022/08/28 08:47:46;;;;;;;6.80;1.92;;;19.70;99.90;;;;;;5026000;28;20041;-74
2022/08/28 08:50:17;;;;;;;7.55;1.88;;;19.80;99.90;;;;;;5024351;28;20068;-74
2022/08/28 08:52:46;;;;;;;;;;;20.00;99.90;;;;;;5028763;28;20041;-73
2022/08/28 08:55:22;;;;;;;5.45;2.15;;;20.20;99.90;;;;;;5032410;28;19920;-73
2022/08/28 08:58:01;;;;;;;4.78;1.80;;;20.20;99.90;;;;;;5025087;28;20045;-73
2022/08/28 09:00:30;;;;;;;7.70;2.30;;;20.50;99.90;;;;;;5023609;28;20108;-73
2022/08/28 09:03:03;;;;;;;7.03;1.73;;;20.70;99.90;;;;;;5031381;28;20119;-73
2022/08/28 09:05:56;;;;;;;4.80;1.70;;;20.70;99.90;;;;;;5015632;28;20041;-73
2022/08/28 09:08:44;;;;;;;6.05;1.83;;;20.40;99.90;;;;;;5006901;28;20524;-73
2022/08/28 09:11:42;;;;;;;5.32;1.70;;;20.40;99.90;;;;;;5032062;28;20103;-73
2022/08/28 09:14:35;;;;;;;3.78;1.48;;;20.70;99.90;;;;;;4991689;28;20057;-73
2022/08/28 09:17:01;;;;;;;5.93;1.77;;;21.20;99.90;;;;;;5030676;28;20042;-73
2022/08/28 09:19:28;;;;;;;6.35;1.50;;;21.20;99.90;;;;;;5025711;28;20120;-73
2022/08/28 09:21:54;;;;;;;3.70;1.45;;;21.20;99.90;;;;;;5024488;28;20041;-73
2022/08/28 09:24:30;;;;;;;7.28;1.80;;;21.10;99.90;;;;;;4994422;28;20037;-73
2022/08/28 09:27:05;;;;;;;6.72;1.70;;;21.30;99.90;;;;;;5031016;28;20052;-73
2022/08/28 09:29:42;;;;;;;5.40;1.80;;;21.90;99.90;;;;;;5012423;28;20053;-73
2022/08/28 09:32:28;;;;;;;4.72;1.67;;;22.40;97.90;;;;;;5011606;28;20061;-73
2022/08/28 09:35:11;;;;;;;3.85;1.65;;;22.30;95.40;;;;;;5011867;28;20122;-73
2022/08/28 09:37:39;;;;;;;7.07;1.83;;;22.10;96.00;;;;;;5011619;28;20124;-73
2022/08/28 09:40:22;;;;;;;5.30;1.55;;;21.70;96.80;;;;;;4984722;28;20107;-73
2022/08/28 09:43:30;;;;;;;8.02;1.98;;;21.30;96.80;;;;;;5022312;28;20129;-73
2022/08/28 09:46:05;;;;;;;6.22;1.92;;;21.20;97.70;;;;;;5041823;28;20045;-73
2022/08/28 09:48:42;;;;;;;8.10;1.92;;;21.60;98.20;;;;;;5031429;28;20199;-73
2022/08/28 09:51:20;;;;;;;6.25;1.65;;;22.30;95.90;;;;;;5025846;28;20045;-73
2022/08/28 09:53:53;;;;;;;4.60;1.65;;;22.60;96.20;;;;;;5028424;28;20053;-73
2022/08/28 09:56:21;;;;;;;8.63;1.70;;;22.60;94.70;;;;;;5028411;28;20038;-73
2022/08/28 09:58:55;;;;;;;5.18;1.80;;;22.40;94.70;;;;;;5028150;28;20046;-73
2022/08/28 10:01:48;;;;;;;5.57;1.55;;;22.10;94.10;;;;;;5039008;28;20045;-73
2022/08/28 10:04:23;;;;;;;9.18;1.90;;;21.80;94.40;;;;;;5030931;28;20050;-73
2022/08/28 10:07:11;;;;;;;5.32;1.75;;;21.40;95.40;;;;;;5030939;28;20132;-73
2022/08/28 10:09:58;;;;;;;3.90;1.60;;;21.30;96.10;;;;;;5014909;28;20494;-73
2022/08/28 10:12:30;;;;;;;6.60;1.63;;;21.70;97.10;;;;;;5030650;28;20072;-73
2022/08/28 10:15:13;;;;;;;6.28;1.98;;;21.90;95.50;;;;;;5031050;28;20049;-73
2022/08/28 10:18:12;;;;;;;5.38;1.67;;;21.70;95.10;;;;;;5014896;28;20072;-73
2022/08/28 10:21:02;;;;;;;6.55;1.98;;;21.70;94.60;;;;;;5016168;28;20033;-73
2022/08/28 10:23:33;;;;;;;7.55;1.70;;;21.90;94.20;;;;;;5031919;28;20100;-73
2022/08/28 10:26:26;;;;;;;5.85;1.98;;;22.20;94.70;;;;;;5031826;28;20054;-73
2022/08/28 10:29:30;;;;;;;4.63;1.73;;;23.00;94.90;;;;;;5031795;28;20096;-73
2022/08/28 10:32:01;;;;;;;3.95;1.83;;;23.00;92.00;;;;;;5016914;28;20041;-73
2022/08/28 10:34:47;;;;;;;4.10;1.50;;;22.80;92.20;;;;;;5034826;28;20390;-73
2022/08/28 10:37:19;;;;;;;5.38;1.65;;;23.00;90.90;;;;;;5018372;28;20466;-73
2022/08/28 10:39:55;;;;;;;3.92;1.50;;;23.40;91.60;;;;;;5034888;28;20049;-73
2022/08/28 10:42:35;;;;;;;5.70;1.95;;;23.30;89.60;;;;;;5031710;28;20111;-73
2022/08/28 10:45:04;;;;;;;6.82;1.92;;;22.80;90.10;;;;;;5026691;28;20076;-73
2022/08/28 10:47:40;;;;;;;5.97;1.85;;;22.40;90.90;;;;;;5034758;28;20085;-73
2022/08/28 10:50:14;;;;;;;6.35;1.70;;;22.50;87.20;;;;;;5018359;28;20052;-73
2022/08/28 10:52:46;;;;;;;4.97;1.70;;;23.00;89.00;;;;;;5033680;28;20056;-73
2022/08/28 10:55:18;;;;;;;3.80;1.52;;;23.20;84.20;;;;;;5033494;28;20049;-73
2022/08/28 10:58:10;;;;;;;6.22;1.77;;;23.50;86.10;;;;;;5034598;28;20083;-73
2022/08/28 11:00:38;;;;;;;4.68;1.90;;;23.00;86.50;;;;;;5034181;28;20045;-73
2022/08/28 11:03:11;;;;;;;4.75;1.83;;;22.60;88.60;;;;;;5033642;28;20056;-73
2022/08/28 11:05:41;;;;;;;5.80;1.98;;;22.90;89.50;;;;;;5013556;28;20076;-73
2022/08/28 11:08:30;;;;;;;5.80;1.70;;;23.00;89.30;;;;;;5034137;28;20073;-73
2022/08/28 11:10:59;;;;;;;5.72;1.92;;;22.80;89.00;;;;;;5033557;28;20136;-73
2022/08/28 11:13:58;;;;;;;5.95;2.22;;;22.70;88.30;;;;;;5033458;28;20045;-73
2022/08/28 11:16:27;;;;;;;5.47;2.17;;;23.00;86.20;;;;;;5041768;28;20061;-73
2022/08/28 11:19:05;;;;;;;3.20;1.60;;;23.40;87.90;;;;;;5044280;28;20045;-73
2022/08/28 11:21:48;;;;;;;8.07;2.00;;;23.30;85.00;;;;;;5033716;28;20132;-73
2022/08/28 11:24:49;;;;;;;3.78;1.40;;;23.00;85.20;;;;;;5033297;28;20059;-73
2022/08/28 11:27:23;;;;;;;4.60;1.70;;;22.80;84.40;;;;;;5049500;28;20037;-73
2022/08/28 11:29:56;;;;;;;4.97;1.80;;;22.70;86.40;;;;;;5033836;28;20051;-73
2022/08/28 11:32:50;;;;;;;5.28;2.00;;;23.10;86.00;;;;;;5033082;28;20359;-74
2022/08/28 11:35:28;;;;;;;6.80;2.20;;;23.50;85.90;;;;;;5028773;28;20073;-73
2022/08/28 11:37:56;;;;;;;5.97;1.73;;;23.60;83.80;;;;;;5041100;28;21167;-73
2022/08/28 11:40:31;;;;;;;6.43;1.98;;;23.10;84.60;;;;;;5026009;28;20196;-73
2022/08/28 11:43:15;;;;;;;3.75;1.67;;;22.80;81.00;;;;;;5048642;28;20048;-73
2022/08/28 11:45:46;;;;;;;4.68;2.13;;;23.00;81.90;;;;;;5033462;28;20064;-73
2022/08/28 11:48:22;;;;;;;7.05;1.85;;;23.10;82.20;;;;;;5033976;28;20045;-73
2022/08/28 11:51:05;;;;;;;4.47;1.90;;;23.40;80.20;;;;;;5033681;28;20569;-73
2022/08/28 11:54:10;;;;;;;4.43;2.10;;;23.60;77.50;;;;;;5024155;28;20049;-73
2022/08/28 11:57:07;;;;;;;4.47;2.28;;;23.80;75.30;;;;;;5041128;28;20520;-74
2022/08/28 11:59:42;;;;;;;6.28;2.00;;;23.60;78.00;;;;;;5030853;28;20450;-73
2022/08/28 12:02:39;;;;;;;6.22;1.80;;;23.40;79.90;;;;;;5016579;28;20053;-74
2022/08/28 12:05:15;;;;;;;7.05;1.85;;;23.10;81.30;;;;;;5032864;28;20064;-73
2022/08/28 12:07:48;;;;;;;7.80;2.28;;;23.10;83.00;;;;;;5032736;28;20073;-73
2022/08/28 12:10:23;;;;;;;5.47;1.95;;;22.80;83.70;;;;;;5016015;28;20124;-73
2022/08/28 12:12:59;;;;;;;5.70;1.90;;;22.90;84.50;;;;;;5016637;28;20048;-73
2022/08/28 12:15:31;;;;;;;4.07;1.80;;;23.20;84.40;;;;;;5033110;28;20099;-73
2022/08/28 12:18:04;;;;;;;5.82;1.92;;;23.40;83.80;;;;;;5016275;28;20429;-74
2022/08/28 12:20:33;;;;;;;5.60;1.92;;;23.90;82.40;;;;;;5029077;28;20535;-74
2022/08/28 12:23:21;;;;;;;5.70;2.00;;;24.30;82.90;;;;;;5033073;28;20046;-74
2022/08/28 12:25:47;;;;;;;8.13;1.80;;;24.70;81.70;;;;;;5002400;28;20140;-74
2022/08/28 12:28:23;;;;;;;6.47;2.13;;;24.40;79.90;;;;;;5016430;28;20033;-73
2022/08/28 12:31:04;;;;;;;5.30;2.00;;;24.30;77.00;;;;;;5012831;28;20042;-73
2022/08/28 12:33:35;;;;;;;;;;;23.80;74.60;;;;;;5033033;28;20037;-74
2022/08/28 12:36:09;;;;;;;4.15;1.90;;;23.50;74.90;;;;;;5032374;28;19917;-73
2022/08/28 12:38:36;;;;;;;6.30;2.00;;;23.50;77.80;;;;;;5032570;28;20087;-73
2022/08/28 12:41:02;;;;;;;5.55;1.85;;;23.40;78.80;;;;;;5014660;28;20045;-73
2022/08/28 12:43:39;;;;;;;4.47;1.83;;;23.50;78.90;;;;;;5031883;28;20051;-73
2022/08/28 12:46:10;;;;;;;4.38;1.88;;;23.80;77.90;;;;;;5015930;28;20045;-74
2022/08/28 12:48:59;;;;;;;;;;;23.50;78.40;;;;;;5016287;28;20104;-74
2022/08/28 12:51:32;;;;;;;4.28;1.83;;;23.00;76.50;;;;;;5025926;28;20011;-74
2022/08/28 12:54:04;;;;;;;6.30;2.00;;;23.60;78.10;;;;;;5007128;28;20405;-74
2022/08/28 12:56:33;;;;;;;5.75;2.05;;;23.60;78.60;;;;;;5026944;28;20037;-73
2022/08/28 12:59:35;;;;;;;4.70;1.90;;;23.60;77.60;;;;;;5031605;28;20044;-74
2022/08/28 13:02:19;;;;;;;3.38;1.58;;;24.40;74.90;;;;;;5014393;28;20382;-73
2022/08/28 13:05:04;;;;;;;4.53;1.55;;;24.70;74.20;;;;;;5045957;28;20076;-73
2022/08/28 13:07:34;;;;;;;5.03;2.08;;;25.00;71.60;;;;;;5031408;28;20140;-74
2022/08/28 13:10:19;;;;;;;3.90;1.52;;;24.50;73.10;;;;;;5031127;28;20386;-74